Time;durP1;ratioP1;P1;durP2;ratioP2;P2;SDS_P1;SDS_P2;PMS_P1;PMS_P2;Temp;Humidity;BMP_temperature;BMP_pressure;BME280_temperature;BME280_humidity;BME280_pressure;Samples;Min_cycle;Max_cycle;Signal;HPM_P1;HPM_P2
2023/12/12 00:00:45;;;;;;;;;;;0.30;99.90;;;;;;4998697;28;19972;-61
2023/12/12 00:03:11;;;;;;;;;;;0.30;99.90;;;;;;5004264;28;19936;-62
2023/12/12 00:05:38;;;;;;;;;;;0.30;99.90;;;;;;5000794;28;19937;-62
2023/12/12 00:08:05;;;;;;;;;;;0.30;99.90;;;;;;5001756;28;19953;-71
2023/12/12 00:10:32;;;;;;;;;;;0.30;99.90;;;;;;5001645;28;19933;-61
2023/12/12 00:12:59;;;;;;;;;;;0.30;99.90;;;;;;4997163;28;19999;-68
2023/12/12 00:15:26;;;;;;;;;;;0.30;99.90;;;;;;4995296;28;19932;-63
2023/12/12 00:17:53;;;;;;;;;;;0.30;99.90;;;;;;4997733;28;20569;-61
2023/12/12 00:20:20;;;;;;;;;;;0.30;99.90;;;;;;4999861;28;19932;-61
2023/12/12 00:22:47;;;;;;;;;;;0.30;99.90;;;;;;5004109;28;19930;-63
2023/12/12 00:25:14;;;;;;;;;;;0.30;99.90;;;;;;4997300;28;21920;-61
2023/12/12 00:27:41;;;;;;;;;;;0.30;99.90;;;;;;5014859;28;19929;-62
2023/12/12 00:30:08;;;;;;;;;;;0.30;99.90;;;;;;4999787;28;19929;-65
2023/12/12 00:32:35;;;;;;;;;;;0.30;99.90;;;;;;5001780;28;19925;-64
2023/12/12 00:35:02;;;;;;;;;;;0.30;99.90;;;;;;5005965;28;19969;-65
2023/12/12 00:37:29;;;;;;;;;;;0.30;99.90;;;;;;4997560;28;19930;-63
2023/12/12 00:39:56;;;;;;;;;;;0.30;99.90;;;;;;4996650;28;19936;-67
2023/12/12 00:42:23;;;;;;;;;;;0.30;99.90;;;;;;4998402;28;19933;-68
2023/12/12 00:44:50;;;;;;;;;;;0.30;99.90;;;;;;5000988;28;19929;-65
2023/12/12 00:47:17;;;;;;;;;;;0.30;99.90;;;;;;5000407;28;19987;-64
2023/12/12 00:49:43;;;;;;;;;;;0.30;99.90;;;;;;4997967;28;19940;-63
2023/12/12 00:52:10;;;;;;;;;;;0.30;99.90;;;;;;4997449;28;20490;-69
2023/12/12 00:54:37;;;;;;;;;;;0.30;99.90;;;;;;4998761;28;20537;-60
2023/12/12 00:57:04;;;;;;;;;;;0.30;99.90;;;;;;4997471;28;19926;-61
2023/12/12 00:59:31;;;;;;;;;;;0.30;99.90;;;;;;4998232;28;19929;-63
2023/12/12 01:01:58;;;;;;;;;;;0.30;99.90;;;;;;5003354;28;19926;-62
2023/12/12 01:04:24;;;;;;;;;;;0.30;99.90;;;;;;5002555;28;19926;-64
2023/12/12 01:06:51;;;;;;;;;;;0.30;99.90;;;;;;5002644;28;19932;-62
2023/12/12 01:09:18;;;;;;;;;;;0.30;99.90;;;;;;4997420;28;19933;-67
2023/12/12 01:11:45;;;;;;;;;;;0.30;99.90;;;;;;4998994;28;19940;-65
2023/12/12 01:14:13;;;;;;;;;;;0.30;99.90;;;;;;4997851;28;20376;-63
2023/12/12 01:16:40;;;;;;;;;;;0.40;99.90;;;;;;5001154;28;19933;-62
2023/12/12 01:19:07;;;;;;;;;;;0.40;99.90;;;;;;5003002;28;20622;-62
2023/12/12 01:21:34;;;;;;;;;;;0.40;99.90;;;;;;5001492;28;20639;-67
2023/12/12 01:24:01;;;;;;;;;;;0.40;99.90;;;;;;4997278;28;20299;-64
2023/12/12 01:26:28;;;;;;;;;;;0.40;99.90;;;;;;5006787;28;19940;-61
2023/12/12 01:28:55;;;;;;;;;;;0.40;99.90;;;;;;5000071;28;19968;-64
2023/12/12 01:31:22;;;;;;;;;;;0.40;99.90;;;;;;5002530;28;19940;-65
2023/12/12 01:33:49;;;;;;;;;;;0.40;99.90;;;;;;5000464;28;20406;-62
2023/12/12 01:36:16;;;;;;;;;;;0.40;99.90;;;;;;5002937;28;20406;-65
2023/12/12 01:38:44;;;;;;;;;;;0.40;99.90;;;;;;5000711;28;19926;-62
2023/12/12 01:41:10;;;;;;;;;;;0.40;99.90;;;;;;5002587;28;20303;-67
2023/12/12 01:43:37;;;;;;;;;;;0.40;99.90;;;;;;4995137;28;19981;-67
2023/12/12 01:46:08;;;;;;;;;;;0.40;99.90;;;;;;5001677;28;19973;-61
2023/12/12 01:48:35;;;;;;;;;;;0.40;99.90;;;;;;5006633;28;19980;-61
2023/12/12 01:51:03;;;;;;;;;;;0.40;99.90;;;;;;5003870;28;19940;-62
2023/12/12 01:53:32;;;;;;;;;;;0.40;99.90;;;;;;4998355;28;19925;-62
2023/12/12 01:56:01;;;;;;;;;;;0.50;99.90;;;;;;5001652;28;19930;-62
2023/12/12 01:58:28;;;;;;;;;;;0.50;99.90;;;;;;5003350;28;20339;-62
2023/12/12 02:00:55;;;;;;;;;;;0.50;99.90;;;;;;5001205;28;19984;-68
2023/12/12 02:03:26;;;;;;;;;;;0.50;99.90;;;;;;5003954;28;19926;-68
2023/12/12 02:05:57;;;;;;;;;;;0.50;99.90;;;;;;5000968;28;19979;-62
2023/12/12 02:08:25;;;;;;;;;;;0.50;99.90;;;;;;4995393;28;20368;-61
2023/12/12 02:10:52;;;;;;;;;;;0.40;99.90;;;;;;5004551;28;20016;-67
2023/12/12 02:13:19;;;;;;;;;;;0.40;99.90;;;;;;4997348;28;20371;-62
2023/12/12 02:15:46;;;;;;;;;;;0.40;99.90;;;;;;4998425;28;19933;-62
2023/12/12 02:18:16;;;;;;;;;;;0.40;99.90;;;;;;5003008;28;20029;-70
2023/12/12 02:20:43;;;;;;;;;;;0.40;99.90;;;;;;5002720;28;20438;-65
2023/12/12 02:23:10;;;;;;;;;;;0.40;99.90;;;;;;5002755;28;20478;-61
2023/12/12 02:25:37;;;;;;;;;;;0.40;99.90;;;;;;5002203;28;19932;-64
2023/12/12 02:28:05;;;;;;;;;;;0.50;99.90;;;;;;5000110;28;20734;-62
2023/12/12 02:30:33;;;;;;;;;;;0.50;99.90;;;;;;4996079;28;19933;-62
2023/12/12 02:33:00;;;;;;;;;;;0.50;99.90;;;;;;4995224;28;19965;-63
2023/12/12 02:35:29;;;;;;;;;;;0.50;99.90;;;;;;4997088;28;19965;-61
2023/12/12 02:37:55;;;;;;;;;;;0.50;99.90;;;;;;4999230;28;20304;-62
2023/12/12 02:40:22;;;;;;;;;;;0.40;99.90;;;;;;5000800;28;20055;-61
2023/12/12 02:42:51;;;;;;;;;;;0.40;99.90;;;;;;5000811;28;19926;-64
2023/12/12 02:45:18;;;;;;;;;;;0.40;99.90;;;;;;5001308;28;19984;-68
2023/12/12 02:47:45;;;;;;;;;;;0.40;99.90;;;;;;5000426;28;20426;-62
2023/12/12 02:50:12;;;;;;;;;;;0.40;99.90;;;;;;5003436;28;20029;-61
2023/12/12 02:52:39;;;;;;;;;;;0.40;99.90;;;;;;5003504;28;19939;-63
2023/12/12 02:55:06;;;;;;;;;;;0.40;99.90;;;;;;4997617;28;19929;-62
2023/12/12 02:57:33;;;;;;;;;;;0.40;99.90;;;;;;5000362;28;19991;-61
2023/12/12 03:00:00;;;;;;;;;;;0.40;99.90;;;;;;4997609;28;20024;-64
2023/12/12 03:02:27;;;;;;;;;;;0.40;99.90;;;;;;5001791;28;19948;-65
2023/12/12 03:04:54;;;;;;;;;;;0.40;99.90;;;;;;4997122;28;19941;-63
2023/12/12 03:07:21;;;;;;;;;;;0.40;99.90;;;;;;4998403;28;19940;-68
2023/12/12 03:09:49;;;;;;;;;;;0.40;99.90;;;;;;5004694;28;19957;-68
2023/12/12 03:12:16;;;;;;;;;;;0.40;99.90;;;;;;5000123;28;19934;-64
2023/12/12 03:14:44;;;;;;;;;;;0.40;99.90;;;;;;4998430;28;19937;-64
2023/12/12 03:17:11;;;;;;;;;;;0.40;99.90;;;;;;4999668;28;19932;-66
2023/12/12 03:19:37;;;;;;;;;;;0.50;99.90;;;;;;4995684;28;19941;-61
2023/12/12 03:22:04;;;;;;;;;;;0.50;99.90;;;;;;5013503;28;20336;-66
2023/12/12 03:24:31;;;;;;;;;;;0.50;99.90;;;;;;5000589;28;19925;-64
2023/12/12 03:26:58;;;;;;;;;;;0.40;99.90;;;;;;5002546;28;20524;-63
2023/12/12 03:29:25;;;;;;;;;;;0.50;99.90;;;;;;5000127;28;19980;-64
2023/12/12 03:31:53;;;;;;;;;;;0.50;99.90;;;;;;5001073;28;20019;-64
2023/12/12 03:34:20;;;;;;;;;;;0.50;99.90;;;;;;5001162;28;19931;-67
2023/12/12 03:36:47;;;;;;;;;;;0.50;99.90;;;;;;4998673;28;20037;-69
2023/12/12 03:39:14;;;;;;;;;;;0.50;99.90;;;;;;5000155;28;19929;-63
2023/12/12 03:41:43;;;;;;;;;;;0.60;99.90;;;;;;5002002;28;19936;-65
2023/12/12 03:44:10;;;;;;;;;;;0.60;99.90;;;;;;4998893;28;20020;-62
2023/12/12 03:46:36;;;;;;;;;;;0.60;99.90;;;;;;5020022;28;20342;-62
2023/12/12 03:49:04;;;;;;;;;;;0.60;99.90;;;;;;5002576;28;19964;-64
2023/12/12 03:51:31;;;;;;;;;;;0.60;99.90;;;;;;4996026;28;20026;-64
2023/12/12 03:53:58;;;;;;;;;;;0.70;99.90;;;;;;5000704;28;20393;-64
2023/12/12 03:56:25;;;;;;;;;;;0.60;99.90;;;;;;4999533;28;19939;-62
2023/12/12 03:58:52;;;;;;;;;;;0.70;99.90;;;;;;5000948;28;20291;-61
2023/12/12 04:01:19;;;;;;;;;;;0.70;99.90;;;;;;5002249;28;20012;-68
2023/12/12 04:03:46;;;;;;;;;;;0.80;99.90;;;;;;5004572;28;20334;-61
2023/12/12 04:06:13;;;;;;;;;;;0.90;99.90;;;;;;5002725;28;19957;-65
2023/12/12 04:08:40;;;;;;;;;;;0.90;99.90;;;;;;4990807;28;19937;-65
2023/12/12 04:11:07;;;;;;;;;;;1.00;99.90;;;;;;4996212;28;19992;-63
2023/12/12 04:13:33;;;;;;;;;;;1.10;99.90;;;;;;4997613;28;20831;-66
2023/12/12 04:16:00;;;;;;;;;;;1.10;99.90;;;;;;4997984;28;19952;-62
2023/12/12 04:18:27;;;;;;;;;;;1.10;99.90;;;;;;5001675;28;20005;-63
2023/12/12 04:20:54;;;;;;;;;;;1.20;99.90;;;;;;4999751;28;20328;-64
2023/12/12 04:23:21;;;;;;;;;;;1.10;99.90;;;;;;4995125;28;19937;-66
2023/12/12 04:25:48;;;;;;;;;;;1.10;99.90;;;;;;5003227;28;19926;-62
2023/12/12 04:28:15;;;;;;;;;;;1.10;99.90;;;;;;5001382;28;19937;-70
2023/12/12 04:30:42;;;;;;;;;;;1.20;99.90;;;;;;4997623;28;20028;-71
2023/12/12 04:33:08;;;;;;;;;;;1.20;99.90;;;;;;4996915;28;20020;-62
2023/12/12 04:35:36;;;;;;;;;;;1.20;99.90;;;;;;4999991;28;19929;-64
2023/12/12 04:38:02;;;;;;;;;;;1.30;99.90;;;;;;4999589;28;19925;-65
2023/12/12 04:40:29;;;;;;;;;;;1.30;99.90;;;;;;4994797;28;19940;-62
2023/12/12 04:42:56;;;;;;;;;;;1.30;99.90;;;;;;4996896;28;19933;-66
2023/12/12 04:45:23;;;;;;;;;;;1.30;99.90;;;;;;4999454;28;19929;-67
2023/12/12 04:47:50;;;;;;;;;;;1.30;99.90;;;;;;5000841;28;19925;-61
2023/12/12 04:50:17;;;;;;;;;;;1.30;99.90;;;;;;5012709;28;20294;-68
2023/12/12 04:52:44;;;;;;;;;;;1.30;99.90;;;;;;4996692;28;19929;-66
2023/12/12 04:55:11;;;;;;;;;;;1.30;99.90;;;;;;4992299;28;19937;-61
2023/12/12 04:57:38;;;;;;;;;;;1.30;99.90;;;;;;5001408;28;19926;-67
2023/12/12 05:00:12;;;;;;;;;;;1.30;99.90;;;;;;4998926;28;20024;-64
2023/12/12 05:02:41;;;;;;;;;;;1.30;99.90;;;;;;5001152;28;19965;-64
2023/12/12 05:05:08;;;;;;;;;;;1.30;99.90;;;;;;5002476;28;20027;-62
2023/12/12 05:07:35;;;;;;;;;;;1.30;99.90;;;;;;5001798;28;20772;-67
2023/12/12 05:10:03;;;;;;;;;;;1.30;99.90;;;;;;5002667;28;19930;-67
2023/12/12 05:12:29;;;;;;;;;;;1.30;99.90;;;;;;4999756;28;20036;-64
2023/12/12 05:15:01;;;;;;;;;;;1.30;99.90;;;;;;5000803;28;19925;-69
2023/12/12 05:17:28;;;;;;;;;;;1.30;99.90;;;;;;4997449;28;19933;-61
2023/12/12 05:19:57;;;;;;;;;;;1.30;99.90;;;;;;5004671;28;19930;-61
2023/12/12 05:22:25;;;;;;;;;;;1.30;99.90;;;;;;5000715;28;20527;-64
2023/12/12 05:24:52;;;;;;;;;;;1.30;99.90;;;;;;5003248;28;19929;-61
2023/12/12 05:27:19;;;;;;;;;;;1.30;99.90;;;;;;4997393;28;19930;-65
2023/12/12 05:29:46;;;;;;;;;;;1.30;99.90;;;;;;5005463;28;20023;-67
2023/12/12 05:32:13;;;;;;;;;;;1.30;99.90;;;;;;5002822;28;19957;-61
2023/12/12 05:34:40;;;;;;;;;;;1.30;99.90;;;;;;5003400;28;20031;-65
2023/12/12 05:37:08;;;;;;;;;;;1.30;99.90;;;;;;5003517;28;19934;-65
2023/12/12 05:39:35;;;;;;;;;;;1.30;99.90;;;;;;5003275;28;19995;-65
2023/12/12 05:42:02;;;;;;;;;;;1.30;99.90;;;;;;4999027;28;20348;-61
2023/12/12 05:44:31;;;;;;;;;;;1.30;99.90;;;;;;4999209;28;20017;-62
2023/12/12 05:46:58;;;;;;;;;;;1.30;99.90;;;;;;5003736;28;19925;-62
2023/12/12 05:49:25;;;;;;;;;;;1.30;99.90;;;;;;5004055;28;19972;-64
2023/12/12 05:51:53;;;;;;;;;;;1.30;99.90;;;;;;5003707;28;19960;-63
2023/12/12 05:54:19;;;;;;;;;;;1.30;99.90;;;;;;5004081;28;19941;-66
2023/12/12 05:56:51;;;;;;;;;;;1.30;99.90;;;;;;5005297;28;20395;-66
2023/12/12 05:59:18;;;;;;;;;;;1.30;99.90;;;;;;4999604;28;19952;-63
2023/12/12 06:01:45;;;;;;;;;;;1.30;99.90;;;;;;5001773;28;20343;-62
2023/12/12 06:04:12;;;;;;;;;;;1.30;99.90;;;;;;5003131;28;20295;-68
2023/12/12 06:06:41;;;;;;;;;;;1.30;99.90;;;;;;5005013;28;19963;-67
2023/12/12 06:09:09;;;;;;;;;;;1.30;99.90;;;;;;4995662;28;20733;-64
2023/12/12 06:11:36;;;;;;;;;;;1.30;99.90;;;;;;5003553;28;19987;-68
2023/12/12 06:14:03;;;;;;;;;;;1.30;99.90;;;;;;5010661;28;20586;-62
2023/12/12 06:16:30;;;;;;;;;;;1.30;99.90;;;;;;4997048;28;19926;-63
2023/12/12 06:18:57;;;;;;;;;;;1.30;99.90;;;;;;5000916;28;20828;-67
2023/12/12 06:21:24;;;;;;;;;;;1.30;99.90;;;;;;5003349;28;20012;-61
2023/12/12 06:23:51;;;;;;;;;;;1.30;99.90;;;;;;4999145;28;20039;-61
2023/12/12 06:26:18;;;;;;;;;;;1.30;99.90;;;;;;4996251;28;20276;-68
2023/12/12 06:28:45;;;;;;;;;;;1.20;99.90;;;;;;4997465;28;20390;-71
2023/12/12 06:31:11;;;;;;;;;;;1.10;99.90;;;;;;4998832;28;20016;-63
2023/12/12 06:33:38;;;;;;;;;;;1.10;99.90;;;;;;4997331;28;19980;-64
2023/12/12 06:36:06;;;;;;;;;;;1.10;99.90;;;;;;5001137;28;19944;-64
2023/12/12 06:38:33;;;;;;;;;;;1.10;99.90;;;;;;4999816;28;20387;-62
2023/12/12 06:40:59;;;;;;;;;;;1.10;99.90;;;;;;5006054;28;19926;-62
2023/12/12 06:43:27;;;;;;;;;;;1.10;99.90;;;;;;5002792;28;20016;-68
2023/12/12 06:45:54;;;;;;;;;;;1.10;99.90;;;;;;5001254;28;19933;-62
2023/12/12 06:48:21;;;;;;;;;;;1.10;99.90;;;;;;4998628;28;19956;-65
2023/12/12 06:50:48;;;;;;;;;;;1.10;99.90;;;;;;5002024;28;19936;-65
2023/12/12 06:53:15;;;;;;;;;;;1.10;99.90;;;;;;5002677;28;19930;-67
2023/12/12 06:55:41;;;;;;;;;;;1.00;99.90;;;;;;5018051;28;20564;-68
2023/12/12 06:58:08;;;;;;;;;;;1.00;99.90;;;;;;5004670;28;19929;-70
2023/12/12 07:00:35;;;;;;;;;;;1.00;99.90;;;;;;5007180;28;20330;-66
2023/12/12 07:03:02;;;;;;;;;;;1.00;99.90;;;;;;4998686;28;19934;-64
2023/12/12 07:05:29;;;;;;;;;;;1.10;99.90;;;;;;5002655;28;20367;-64
2023/12/12 07:07:56;;;;;;;;;;;1.10;99.90;;;;;;4998535;28;19944;-64
2023/12/12 07:10:23;;;;;;;;;;;1.20;99.90;;;;;;4995051;28;19926;-65
2023/12/12 07:12:50;;;;;;;;;;;1.20;99.90;;;;;;5002233;28;20035;-64
2023/12/12 07:15:17;;;;;;;;;;;1.30;99.90;;;;;;4999884;28;19930;-66
2023/12/12 07:17:43;;;;;;;;;;;1.20;99.90;;;;;;5000600;28;19980;-62
2023/12/12 07:20:11;;;;;;;;;;;1.30;99.90;;;;;;4993132;28;19984;-63
2023/12/12 07:22:39;;;;;;;;;;;1.30;99.90;;;;;;4999210;28;19929;-65
2023/12/12 07:25:08;;;;;;;;;;;1.30;99.90;;;;;;5000414;28;19956;-71
2023/12/12 07:27:35;;;;;;;;;;;1.30;99.90;;;;;;4999652;28;20586;-62
2023/12/12 07:30:02;;;;;;;;;;;1.30;99.90;;;;;;4999396;28;19940;-67
2023/12/12 07:32:29;;;;;;;;;;;1.30;99.90;;;;;;4997602;28;19930;-64
2023/12/12 07:34:55;;;;;;;;;;;1.30;99.90;;;;;;5000985;28;19933;-67
2023/12/12 07:37:22;;;;;;;;;;;1.30;99.90;;;;;;5006017;28;19929;-62
2023/12/12 07:39:49;;;;;;;;;;;1.30;99.90;;;;;;4999533;28;19926;-62
2023/12/12 07:42:16;;;;;;;;;;;1.30;99.90;;;;;;5002657;28;20482;-62
2023/12/12 07:44:43;;;;;;;;;;;1.20;99.90;;;;;;4997362;28;20023;-66
2023/12/12 07:47:10;;;;;;;;;;;1.20;99.90;;;;;;5002661;28;19979;-71
2023/12/12 07:49:37;;;;;;;;;;;1.20;99.90;;;;;;5004011;28;19980;-62
2023/12/12 07:52:04;;;;;;;;;;;1.20;99.90;;;;;;4999249;28;20020;-69
2023/12/12 07:54:31;;;;;;;;;;;1.30;99.90;;;;;;4998061;28;19929;-64
2023/12/12 07:56:58;;;;;;;;;;;1.30;99.90;;;;;;4999378;28;19936;-65
2023/12/12 07:59:25;;;;;;;;;;;1.30;99.90;;;;;;5003404;28;19979;-65
2023/12/12 08:01:52;;;;;;;;;;;1.30;99.90;;;;;;4994138;28;19925;-65
2023/12/12 08:04:18;;;;;;;;;;;1.30;99.90;;;;;;4997246;28;19930;-68
2023/12/12 08:06:45;;;;;;;;;;;1.30;99.90;;;;;;4997614;28;19973;-64
2023/12/12 08:09:12;;;;;;;;;;;1.30;99.90;;;;;;5014521;28;20028;-64
2023/12/12 08:11:39;;;;;;;;;;;1.30;99.90;;;;;;4999164;28;19980;-64
2023/12/12 08:14:06;;;;;;;;;;;1.30;99.90;;;;;;4999717;28;20072;-62
2023/12/12 08:16:33;;;;;;;;;;;1.30;99.90;;;;;;5000364;28;19932;-63
2023/12/12 08:19:00;;;;;;;;;;;1.30;99.90;;;;;;4998384;28;19929;-64
2023/12/12 08:21:28;;;;;;;;;;;1.40;99.90;;;;;;4998891;28;19925;-67
2023/12/12 08:23:55;;;;;;;;;;;1.30;99.90;;;;;;5013878;28;20268;-66
2023/12/12 08:26:22;;;;;;;;;;;1.40;99.90;;;;;;4998994;28;19987;-68
2023/12/12 08:28:49;;;;;;;;;;;1.40;99.90;;;;;;4997632;28;20372;-66
2023/12/12 08:31:16;;;;;;;;;;;1.40;99.90;;;;;;4999649;28;19948;-66
2023/12/12 08:33:43;;;;;;;;;;;1.40;99.90;;;;;;4993914;28;19934;-63
2023/12/12 08:36:11;;;;;;;;;;;1.40;99.90;;;;;;5000272;28;19936;-62
2023/12/12 08:38:39;;;;;;;;;;;1.40;99.90;;;;;;4993166;28;20518;-62
2023/12/12 08:41:06;;;;;;;;;;;1.40;99.90;;;;;;4998760;28;19940;-62
2023/12/12 08:43:39;;;;;;;;;;;1.40;99.90;;;;;;5033962;28;20303;-61
2023/12/12 08:46:06;;;;;;;;;;;1.40;99.90;;;;;;5000755;28;19960;-66
2023/12/12 08:48:33;;;;;;;;;;;1.40;99.90;;;;;;4997334;28;19925;-67
2023/12/12 08:51:00;;;;;;;;;;;1.40;99.90;;;;;;5003004;28;19930;-66
2023/12/12 08:53:27;;;;;;;;;;;1.40;99.90;;;;;;5003513;28;19938;-65
2023/12/12 08:55:55;;;;;;;;;;;1.40;99.90;;;;;;4998495;28;19933;-64
2023/12/12 08:58:22;;;;;;;;;;;1.40;99.90;;;;;;5000058;28;20641;-66
2023/12/12 09:00:51;;;;;;;;;;;1.40;99.90;;;;;;5001241;28;19925;-65
2023/12/12 09:03:18;;;;;;;;;;;1.40;99.90;;;;;;4997690;28;20012;-63
2023/12/12 09:05:45;;;;;;;;;;;1.40;99.90;;;;;;5001930;28;20016;-62
2023/12/12 09:08:12;;;;;;;;;;;1.40;99.90;;;;;;4999426;28;20029;-65
2023/12/12 09:10:39;;;;;;;;;;;1.40;99.90;;;;;;5000325;28;19937;-64
2023/12/12 09:13:06;;;;;;;;;;;1.40;99.90;;;;;;5007067;28;19933;-62
2023/12/12 09:15:33;;;;;;;;;;;1.40;99.90;;;;;;4995328;28;19972;-63
2023/12/12 09:18:00;;;;;;;;;;;1.40;99.90;;;;;;5004527;28;19936;-68
2023/12/12 09:20:45;;;;;;;;;;;1.40;99.90;;;;;;4999574;28;20322;-63
2023/12/12 09:23:12;;;;;;;;;;;1.40;99.90;;;;;;4999174;28;19971;-61
2023/12/12 09:25:39;;;;;;;;;;;1.40;99.90;;;;;;4998022;28;20601;-68
2023/12/12 09:28:06;;;;;;;;;;;1.40;99.90;;;;;;4998868;28;19984;-61
2023/12/12 09:30:33;;;;;;;;;;;1.40;99.90;;;;;;4998506;28;20494;-63
2023/12/12 09:33:00;;;;;;;;;;;1.40;99.90;;;;;;5019511;28;20225;-69
2023/12/12 09:35:27;;;;;;;;;;;1.40;99.90;;;;;;4999065;28;20514;-64
2023/12/12 09:37:54;;;;;;;;;;;1.40;99.90;;;;;;4998195;28;19941;-67
2023/12/12 09:40:21;;;;;;;;;;;1.40;99.90;;;;;;4997816;28;19957;-70
2023/12/12 09:42:48;;;;;;;;;;;1.40;99.90;;;;;;4995408;28;19932;-63
2023/12/12 09:45:15;;;;;;;;;;;1.40;99.90;;;;;;5001531;28;19930;-63
2023/12/12 09:47:42;;;;;;;;;;;1.40;99.90;;;;;;5006555;28;19980;-67
2023/12/12 09:50:12;;;;;;;;;;;1.40;99.90;;;;;;5007573;28;19926;-62
2023/12/12 09:52:40;;;;;;;;;;;1.40;99.90;;;;;;5004861;28;19933;-61
2023/12/12 09:55:08;;;;;;;;;;;1.40;99.90;;;;;;5003423;28;20330;-66
2023/12/12 09:57:35;;;;;;;;;;;1.40;99.90;;;;;;5005478;28;19929;-76
2023/12/12 10:00:04;;;;;;;;;;;1.40;99.90;;;;;;5009169;28;19949;-62
2023/12/12 10:02:34;;;;;;;;;;;1.40;99.90;;;;;;5001910;28;20611;-62
2023/12/12 10:05:03;;;;;;;;;;;1.40;99.90;;;;;;5002855;28;20577;-67
2023/12/12 10:07:31;;;;;;;;;;;1.40;99.90;;;;;;5004107;28;19929;-65
2023/12/12 10:09:59;;;;;;;;;;;1.40;99.90;;;;;;5022062;28;21198;-63
2023/12/12 10:12:26;;;;;;;;;;;1.30;99.90;;;;;;5005004;28;19929;-68
2023/12/12 10:14:56;;;;;;;;;;;1.30;99.90;;;;;;4997768;28;19926;-62
2023/12/12 10:17:25;;;;;;;;;;;1.30;99.90;;;;;;5000005;28;19925;-64
2023/12/12 10:20:05;;;;;;;;;;;1.30;99.90;;;;;;5005033;28;19936;-66
2023/12/12 10:22:32;;;;;;;;;;;1.30;99.90;;;;;;5006488;28;19929;-66
2023/12/12 10:25:10;;;;;;;;;;;1.30;99.90;;;;;;4997600;28;19933;-69
2023/12/12 10:27:41;;;;;;;;;;;1.30;99.90;;;;;;5001123;28;19929;-64
2023/12/12 10:30:10;;;;;;;;;;;1.30;99.90;;;;;;5007193;28;19930;-62
2023/12/12 10:32:38;;;;;;;;;;;1.40;99.90;;;;;;5000006;28;20299;-66
2023/12/12 10:35:05;;;;;;;;;;;1.40;99.90;;;;;;5001820;28;20026;-66
2023/12/12 10:37:32;;;;;;;;;;;1.40;99.90;;;;;;5006067;28;20048;-66
2023/12/12 10:40:11;;;;;;;;;;;1.40;99.90;;;;;;5004064;28;19969;-62
2023/12/12 10:42:40;;;;;;;;;;;1.40;99.90;;;;;;5005301;28;19933;-64
2023/12/12 10:45:09;;;;;;;;;;;1.40;99.90;;;;;;5002675;28;20340;-64
2023/12/12 10:47:39;;;;;;;;;;;1.40;99.90;;;;;;5000843;28;19968;-62
2023/12/12 10:50:09;;;;;;;;;;;1.40;99.90;;;;;;5004402;28;20021;-62
2023/12/12 10:52:37;;;;;;;;;;;1.40;99.90;;;;;;4999041;28;20352;-62
2023/12/12 10:55:05;;;;;;;;;;;1.40;99.90;;;;;;5002687;28;19929;-64
2023/12/12 10:57:32;;;;;;;;;;;1.40;99.90;;;;;;4996363;28;19932;-64
2023/12/12 10:59:59;;;;;;;;;;;1.40;99.90;;;;;;5001030;28;19948;-65
2023/12/12 11:02:34;;;;;;;;;;;1.40;99.90;;;;;;4999168;28;19929;-66
2023/12/12 11:05:01;;;;;;;;;;;1.30;99.90;;;;;;5003851;28;19968;-61
2023/12/12 11:07:28;;;;;;;;;;;1.30;99.90;;;;;;5000014;28;19933;-67
2023/12/12 11:09:55;;;;;;;;;;;1.30;99.90;;;;;;5007762;28;19926;-75
2023/12/12 11:12:22;;;;;;;;;;;1.30;99.90;;;;;;4998349;28;19933;-62
2023/12/12 11:14:48;;;;;;;;;;;1.30;99.90;;;;;;5009159;28;19926;-61
2023/12/12 11:17:15;;;;;;;;;;;1.30;99.90;;;;;;5005250;28;19926;-73
2023/12/12 11:19:43;;;;;;;;;;;1.30;99.90;;;;;;4998113;28;19933;-62
2023/12/12 11:22:30;;;;;;;;;;;1.20;99.90;;;;;;5002167;28;19930;-71
2023/12/12 11:25:03;;;;;;;;;;;1.20;99.90;;;;;;5002945;28;20012;-62
2023/12/12 11:27:31;;;;;;;;;;;1.20;99.90;;;;;;5004613;28;19930;-63
2023/12/12 11:29:59;;;;;;;;;;;1.30;99.90;;;;;;5002076;28;19961;-65
2023/12/12 11:32:26;;;;;;;;;;;1.20;99.90;;;;;;5001620;28;19926;-62
2023/12/12 11:34:52;;;;;;;;;;;1.20;99.90;;;;;;5000838;28;20348;-62
2023/12/12 11:37:32;;;;;;;;;;;1.10;99.90;;;;;;5003979;28;19932;-66
2023/12/12 11:40:00;;;;;;;;;;;1.10;99.90;;;;;;5002877;28;20424;-67
2023/12/12 11:42:29;;;;;;;;;;;1.10;99.90;;;;;;5001831;28;19929;-61
2023/12/12 11:44:58;;;;;;;;;;;1.10;99.90;;;;;;5001153;28;19930;-67
2023/12/12 11:47:26;;;;;;;;;;;1.10;99.90;;;;;;5000726;28;20532;-61
2023/12/12 11:50:12;;;;;;;;;;;1.10;99.90;;;;;;4999125;28;20415;-65
2023/12/12 11:52:39;;;;;;;;;;;1.10;99.90;;;;;;5001030;28;20587;-66
2023/12/12 11:55:06;;;;;;;;;;;1.10;99.90;;;;;;5000773;28;19933;-62
2023/12/12 11:57:33;;;;;;;;;;;1.10;99.90;;;;;;4998198;28;19926;-65
2023/12/12 12:00:01;;;;;;;;;;;1.10;99.90;;;;;;5002132;28;19930;-71
2023/12/12 12:02:30;;;;;;;;;;;1.10;99.90;;;;;;5008397;28;19929;-69
2023/12/12 12:04:58;;;;;;;;;;;1.10;99.90;;;;;;5004715;28;19933;-69
2023/12/12 12:07:25;;;;;;;;;;;1.10;99.90;;;;;;5002168;28;19941;-66
2023/12/12 12:09:53;;;;;;;;;;;1.10;99.90;;;;;;4994688;28;19930;-66
2023/12/12 12:12:20;;;;;;;;;;;1.20;99.90;;;;;;4997198;28;19941;-63
2023/12/12 12:14:47;;;;;;;;;;;1.10;99.90;;;;;;4997493;28;19933;-67
2023/12/12 12:17:14;;;;;;;;;;;1.10;99.90;;;;;;4995950;28;19929;-66
2023/12/12 12:19:41;;;;;;;;;;;1.00;99.90;;;;;;5020155;28;20383;-65
2023/12/12 12:22:12;;;;;;;;;;;1.00;99.90;;;;;;4995929;28;19938;-70
2023/12/12 12:24:45;;;;;;;;;;;1.00;99.90;;;;;;4999204;28;19957;-62
2023/12/12 12:27:13;;;;;;;;;;;1.00;99.90;;;;;;5000490;28;19932;-62
2023/12/12 12:29:39;;;;;;;;;;;1.00;99.90;;;;;;5001943;28;19976;-63
2023/12/12 12:32:13;;;;;;;;;;;1.10;99.90;;;;;;4998781;28;20008;-68
2023/12/12 12:34:41;;;;;;;;;;;1.10;99.90;;;;;;4999505;28;20378;-61
2023/12/12 12:37:27;;;;;;;;;;;1.20;99.90;;;;;;5002427;28;19957;-77
2023/12/12 12:39:54;;;;;;;;;;;1.20;99.90;;;;;;5033075;28;20356;-62
2023/12/12 12:42:20;;;;;;;;;;;1.20;99.90;;;;;;5004840;28;20015;-70
2023/12/12 12:44:52;;;;;;;;;;;1.20;99.90;;;;;;5025530;28;19940;-67
2023/12/12 12:47:20;;;;;;;;;;;1.20;99.90;;;;;;5001577;28;20031;-62
2023/12/12 12:49:47;;;;;;;;;;;1.20;99.90;;;;;;5004787;28;20808;-62
2023/12/12 12:52:14;;;;;;;;;;;1.20;99.90;;;;;;5007332;28;19926;-73
2023/12/12 12:54:41;;;;;;;;;;;1.30;99.90;;;;;;5002255;28;20560;-62
2023/12/12 12:57:11;;;;;;;;;;;1.20;99.90;;;;;;5009558;28;19929;-67
2023/12/12 12:59:38;;;;;;;;;;;1.20;99.90;;;;;;5009682;28;19925;-65
2023/12/12 13:02:05;;;;;;;;;;;1.20;99.90;;;;;;5000392;28;20664;-62
2023/12/12 13:04:33;;;;;;;;;;;1.20;99.90;;;;;;5005447;28;20024;-65
2023/12/12 13:07:02;;;;;;;;;;;1.20;99.90;;;;;;4999439;28;20427;-66
2023/12/12 13:09:29;;;;;;;;;;;1.20;99.90;;;;;;4998798;28;20376;-63
2023/12/12 13:11:57;;;;;;;;;;;1.20;99.90;;;;;;5003521;28;19929;-65
2023/12/12 13:14:24;;;;;;;;;;;1.20;99.90;;;;;;5002833;28;19926;-65
2023/12/12 13:16:51;;;;;;;;;;;1.20;99.90;;;;;;5009332;28;19925;-64
2023/12/12 13:19:18;;;;;;;;;;;1.20;99.90;;;;;;5010938;28;20295;-64
2023/12/12 13:21:45;;;;;;;;;;;1.20;99.90;;;;;;5002365;28;19965;-65
2023/12/12 13:24:15;;;;;;;;;;;1.20;99.90;;;;;;5003125;28;19965;-63
2023/12/12 13:26:41;;;;;;;;;;;1.20;99.90;;;;;;5008035;28;19999;-65
2023/12/12 13:29:08;;;;;;;;;;;1.10;99.90;;;;;;5013347;28;19925;-63
2023/12/12 13:31:35;;;;;;;;;;;1.10;99.90;;;;;;5004784;28;19925;-63
2023/12/12 13:34:02;;;;;;;;;;;1.10;99.90;;;;;;5009983;28;19937;-83
2023/12/12 13:36:33;;;;;;;;;;;1.10;99.90;;;;;;5007222;28;19929;-82
2023/12/12 13:38:59;;;;;;;;;;;1.10;99.90;;;;;;5006768;28;20379;-68
2023/12/12 13:41:26;;;;;;;;;;;1.10;99.90;;;;;;5001745;28;19933;-64
2023/12/12 13:43:53;;;;;;;;;;;1.10;99.90;;;;;;5007640;28;20811;-63
2023/12/12 13:46:20;;;;;;;;;;;1.10;99.90;;;;;;5011847;28;19926;-64
2023/12/12 13:48:47;;;;;;;;;;;1.10;99.90;;;;;;5012684;28;19925;-66
2023/12/12 13:51:14;;;;;;;;;;;1.10;99.90;;;;;;5009064;28;20391;-63
2023/12/12 13:53:46;;;;;;;;;;;1.10;99.90;;;;;;5012435;28;19940;-64
2023/12/12 13:56:12;;;;;;;;;;;1.00;99.90;;;;;;5013174;28;19952;-62
2023/12/12 13:58:39;;;;;;;;;;;1.00;99.90;;;;;;5007804;28;19932;-63
2023/12/12 14:01:10;;;;;;;;;;;1.10;99.90;;;;;;5007591;28;19936;-64
2023/12/12 14:03:39;;;;;;;;;;;1.10;99.90;;;;;;5008193;28;19973;-69
2023/12/12 14:06:06;;;;;;;;;;;1.00;99.90;;;;;;5005148;28;19930;-63
2023/12/12 14:08:33;;;;;;;;;;;1.00;99.90;;;;;;5005107;28;19936;-63
2023/12/12 14:10:59;;;;;;;;;;;1.10;99.90;;;;;;5000240;28;19930;-76
2023/12/12 14:13:26;;;;;;;;;;;1.00;99.90;;;;;;4999764;28;20366;-67
2023/12/12 14:15:53;;;;;;;;;;;1.00;99.90;;;;;;5006139;28;19933;-65
2023/12/12 14:18:21;;;;;;;;;;;1.00;99.90;;;;;;5011019;28;19937;-63
2023/12/12 14:20:48;;;;;;;;;;;1.00;99.90;;;;;;5011580;28;20346;-64
2023/12/12 14:23:15;;;;;;;;;;;1.00;99.90;;;;;;5005652;28;19929;-68
2023/12/12 14:25:42;;;;;;;;;;;1.00;99.90;;;;;;5000896;28;20647;-66
2023/12/12 14:28:11;;;;;;;;;;;1.00;99.90;;;;;;5011840;28;20028;-63
2023/12/12 14:30:39;;;;;;;;;;;1.00;99.90;;;;;;5002715;28;19936;-76
2023/12/12 14:33:07;;;;;;;;;;;1.00;99.90;;;;;;5005926;28;20578;-67